< < Back
Terminal Aerodrome Forecast


Current Version              Previous Versions:   1  2  3  4  5  6  7  8  9  

Terminal Aerodrome Forecast

044
FTUS42 KJAX 182100 CCA
TAFSSI
TAF COR
KSSI 182122Z 1821/1918 02012KT 3SM RA VCTS SCT008CB BKN015
      WS010/14035KT
      TEMPO 1821/1824 3/4SM +RA OVC008CB
     FM190000 08015G25KT 2SM RA BR OVC006
     FM190300 14015G25KT 2SM RA BR BKN005=

Latest METAR

444
SAUS70 KWBC 190400 RRB
MTRSSI
METAR KSSI 190353Z AUTO 00000KT 10SM -RA OVC014 17/16 A2993 RMK AO2
SLP135 P0000 T01670161 $


USA.gov is the U.S. government's official web portal to all federal, state and local government web resources and services.